Time;durP1;ratioP1;P1;durP2;ratioP2;P2;SDS_P1;SDS_P2;PMS_P1;PMS_P2;Temp;Humidity;BMP_temperature;BMP_pressure;BME280_temperature;BME280_humidity;BME280_pressure;Samples;Min_cycle;Max_cycle;Signal;HPM_P1;HPM_P2
2023/09/12 00:02:16;;;;;;;16.20;9.10;;;;;;;17.67;52.78;100296.89;108059;1253;73093;-66
2023/09/12 00:04:44;;;;;;;17.00;9.60;;;;;;;17.62;52.89;100294.52;108111;1253;60795;-66
2023/09/12 00:07:11;;;;;;;19.40;9.30;;;;;;;17.63;52.82;100292.70;108025;1254;60425;-66
2023/09/12 00:09:39;;;;;;;20.50;9.30;;;;;;;17.60;52.78;100294.67;108047;1252;72617;-66
2023/09/12 00:12:06;;;;;;;19.10;9.10;;;;;;;17.43;53.13;100296.46;108057;1253;70110;-65
2023/09/12 00:14:34;;;;;;;19.20;9.20;;;;;;;17.45;53.10;100295.29;107999;1253;72623;-65
2023/09/12 00:17:01;;;;;;;20.90;10.30;;;;;;;17.50;52.88;100296.04;108109;1254;61776;-66
2023/09/12 00:19:28;;;;;;;14.70;8.70;;;;;;;17.50;52.85;100292.12;108109;1253;60559;-66
2023/09/12 00:21:56;;;;;;;19.70;9.70;;;;;;;17.50;52.95;100294.29;108139;1253;73781;-66
2023/09/12 00:24:23;;;;;;;25.70;10.60;;;;;;;17.56;52.78;100292.05;108120;1253;69587;-66
2023/09/12 00:26:51;;;;;;;19.10;10.70;;;;;;;17.63;52.66;100292.70;108062;1256;72606;-66
2023/09/12 00:29:19;;;;;;;23.00;10.80;;;;;;;17.80;52.14;100296.45;107959;1259;60607;-67
2023/09/12 00:31:46;;;;;;;17.20;10.00;;;;;;;17.72;52.42;100293.72;107931;1254;60463;-66
2023/09/12 00:34:17;;;;;;;20.90;9.90;;;;;;;17.66;52.38;100296.27;107948;1253;75175;-66
2023/09/12 00:36:44;;;;;;;15.00;9.60;;;;;;;17.68;52.37;100293.31;107968;1259;70325;-66
2023/09/12 00:39:12;;;;;;;21.60;10.10;;;;;;;17.66;52.31;100292.52;107948;1253;72799;-66
2023/09/12 00:41:39;;;;;;;17.40;9.10;;;;;;;17.63;52.29;100293.98;107907;1253;61646;-66
2023/09/12 00:44:07;;;;;;;20.90;10.00;;;;;;;17.60;52.34;100296.30;107930;1253;60266;-67
2023/09/12 00:46:34;;;;;;;20.40;10.10;;;;;;;17.58;52.25;100298.00;107959;1253;72870;-66
2023/09/12 00:49:02;;;;;;;22.50;10.80;;;;;;;17.54;52.45;100302.52;107772;1261;69106;-66
2023/09/12 00:51:31;;;;;;;21.90;10.10;;;;;;;17.50;52.65;100300.15;107858;1253;72805;-66
2023/09/12 00:53:58;;;;;;;18.50;10.70;;;;;;;17.41;52.81;100301.17;108036;1259;61677;-66
2023/09/12 00:56:26;;;;;;;19.10;10.80;;;;;;;17.56;52.40;100296.35;107963;1253;60072;-66
2023/09/12 00:58:54;;;;;;;19.00;10.60;;;;;;;17.62;52.08;100294.92;107908;1253;73839;-64
2023/09/12 01:01:21;;;;;;;18.90;11.00;;;;;;;17.44;52.42;100295.88;107997;1253;69218;-67
2023/09/12 01:03:49;;;;;;;23.70;10.10;;;;;;;17.21;52.90;100296.41;108033;1253;70060;-65
2023/09/12 01:06:22;;;;;;;21.60;10.70;;;;;;;17.23;52.99;100297.53;107878;1253;61092;-66
2023/09/12 01:08:50;;;;;;;21.70;11.10;;;;;;;17.01;53.38;100299.95;107993;1253;59455;-64
2023/09/12 01:11:17;;;;;;;21.50;11.80;;;;;;;17.10;53.32;100299.23;107921;1253;73129;-66
2023/09/12 01:13:44;;;;;;;20.50;11.00;;;;;;;17.09;53.48;100297.89;107735;1253;69989;-66
2023/09/12 01:16:12;;;;;;;27.90;11.90;;;;;;;17.04;53.61;100299.24;108024;1253;72040;-65
2023/09/12 01:18:41;;;;;;;19.70;11.10;;;;;;;17.01;53.58;100296.02;107957;1254;60636;-66
2023/09/12 01:21:29;;;;;;;20.50;11.30;;;;;;;16.95;53.78;100295.85;107993;1253;60254;-65
2023/09/12 01:24:34;;;;;;;21.60;10.80;;;;;;;16.88;53.92;100291.67;108070;1254;72677;-66
2023/09/12 01:27:22;;;;;;;17.20;9.90;;;;;;;16.86;54.01;100293.75;108049;1253;68265;-66
2023/09/12 01:29:53;;;;;;;19.10;11.60;;;;;;;16.80;54.19;100289.15;107986;1253;72659;-67
2023/09/12 01:32:20;;;;;;;24.20;11.30;;;;;;;16.82;54.02;100286.71;107928;1253;60449;-65
2023/09/12 01:34:48;;;;;;;16.50;10.50;;;;;;;16.71;54.30;100284.73;107911;1253;60374;-66
2023/09/12 01:37:15;;;;;;;21.10;12.40;;;;;;;16.83;53.92;100282.40;108001;1253;72629;-64
2023/09/12 01:39:43;;;;;;;17.00;10.50;;;;;;;16.69;54.19;100285.53;107964;1254;70549;-66
2023/09/12 01:42:13;;;;;;;18.90;11.00;;;;;;;16.60;54.54;100287.98;107955;1257;72732;-66
2023/09/12 01:44:41;;;;;;;19.80;10.60;;;;;;;16.55;54.75;100284.23;107885;1253;61651;-66
2023/09/12 01:47:09;;;;;;;18.80;11.70;;;;;;;16.63;54.61;100283.38;107741;1253;60295;-65
2023/09/12 01:49:36;;;;;;;24.20;12.10;;;;;;;16.60;54.58;100289.78;107937;1253;73842;-65
2023/09/12 01:52:04;;;;;;;22.10;12.30;;;;;;;16.14;55.48;100291.42;107684;1253;70322;-64
2023/09/12 01:54:32;;;;;;;16.50;9.80;;;;;;;16.19;55.41;100287.92;107917;1256;71632;-65
2023/09/12 01:56:59;;;;;;;20.10;12.50;;;;;;;16.13;55.36;100287.04;107862;1253;61621;-66
2023/09/12 01:59:28;;;;;;;24.60;13.20;;;;;;;16.16;55.68;100291.28;107907;1253;60443;-65
2023/09/12 02:01:55;;;;;;;25.00;13.40;;;;;;;16.23;55.40;100291.42;107953;1253;73899;-65
2023/09/12 02:04:24;;;;;;;25.00;13.10;;;;;;;16.23;55.25;100296.40;107941;1253;69525;-66
2023/09/12 02:06:52;;;;;;;25.70;13.20;;;;;;;16.27;55.28;100297.57;108018;1254;72637;-66
2023/09/12 02:09:19;;;;;;;23.10;12.60;;;;;;;16.32;55.24;100299.09;107982;1257;61712;-66
2023/09/12 02:11:48;;;;;;;24.10;13.40;;;;;;;16.10;55.64;100296.94;107977;1254;60323;-68
2023/09/12 02:14:17;;;;;;;22.10;12.20;;;;;;;15.85;56.33;100300.70;107954;1253;72684;-67
2023/09/12 02:16:45;;;;;;;28.20;13.70;;;;;;;16.05;55.82;100294.58;108019;1253;69136;-66
2023/09/12 02:19:13;;;;;;;23.90;13.00;;;;;;;16.29;55.09;100293.92;107920;1253;71615;-65
2023/09/12 02:21:40;;;;;;;22.70;13.80;;;;;;;16.28;55.08;100292.20;107926;1254;61818;-65
2023/09/12 02:24:08;;;;;;;28.20;14.70;;;;;;;16.19;55.37;100292.20;107948;1253;60416;-67
2023/09/12 02:26:36;;;;;;;22.70;14.70;;;;;;;16.15;55.56;100294.04;107947;1253;73810;-66
2023/09/12 02:29:06;;;;;;;22.20;13.40;;;;;;;16.27;55.25;100294.55;107856;1253;70396;-65
2023/09/12 02:31:33;;;;;;;26.20;13.90;;;;;;;16.30;55.09;100294.71;107994;1254;72807;-66
2023/09/12 02:34:00;;;;;;;24.20;14.20;;;;;;;16.27;55.13;100294.05;107895;1253;60562;-66
2023/09/12 02:36:28;;;;;;;23.90;14.10;;;;;;;16.04;55.63;100291.98;107905;1253;59977;-66
2023/09/12 02:38:55;;;;;;;26.30;14.30;;;;;;;16.08;55.67;100297.23;107923;1254;74107;-66
2023/09/12 02:41:23;;;;;;;23.10;14.40;;;;;;;16.20;55.35;100295.70;108077;1253;70289;-65
2023/09/12 02:43:51;;;;;;;29.40;15.10;;;;;;;16.14;55.51;100298.86;108092;1253;72631;-65
2023/09/12 02:46:18;;;;;;;24.80;14.40;;;;;;;16.34;55.01;100299.31;108079;1254;61643;-66
2023/09/12 02:48:46;;;;;;;27.00;14.90;;;;;;;16.33;54.97;100302.16;107938;1253;60708;-66
2023/09/12 02:51:14;;;;;;;26.30;15.00;;;;;;;16.30;55.08;100303.25;108047;1253;73817;-66
2023/09/12 02:53:41;;;;;;;29.40;16.70;;;;;;;16.18;55.27;100306.07;107941;1253;70296;-66
2023/09/12 02:56:08;;;;;;;28.70;16.30;;;;;;;16.12;55.62;100307.84;107975;1253;72750;-67
2023/09/12 02:58:36;;;;;;;27.30;16.10;;;;;;;16.14;55.66;100308.41;107939;1259;61733;-66
2023/09/12 03:01:06;;;;;;;33.60;17.90;;;;;;;16.07;56.04;100311.79;107886;1253;60468;-64
2023/09/12 03:03:34;;;;;;;31.90;16.00;;;;;;;16.14;56.12;100311.77;108020;1253;72547;-66
2023/09/12 03:06:05;;;;;;;36.50;17.50;;;;;;;16.23;56.11;100311.10;107897;1254;69280;-66
2023/09/12 03:08:32;;;;;;;36.20;18.90;;;;;;;16.29;56.22;100312.84;107927;1254;71593;-66
2023/09/12 03:11:01;;;;;;;33.90;18.10;;;;;;;16.28;56.50;100311.52;107944;1254;61678;-67
2023/09/12 03:13:29;;;;;;;35.60;19.20;;;;;;;16.32;56.73;100311.79;107917;1253;60209;-67
2023/09/12 03:15:56;;;;;;;33.90;18.80;;;;;;;16.35;56.85;100313.04;107968;1253;73845;-66
2023/09/12 03:18:24;;;;;;;33.80;18.30;;;;;;;16.52;56.62;100314.55;107878;1253;69172;-67
2023/09/12 03:20:51;;;;;;;40.50;18.60;;;;;;;16.52;56.72;100309.92;107953;1255;72676;-66
2023/09/12 03:23:19;;;;;;;30.70;17.80;;;;;;;16.58;56.64;100307.98;107858;1254;60528;-65
2023/09/12 03:25:47;;;;;;;37.00;19.30;;;;;;;16.37;57.23;100310.80;108006;1252;59985;-65
2023/09/12 03:28:14;;;;;;;31.40;18.50;;;;;;;16.29;57.55;100314.80;108000;1258;72628;-66
2023/09/12 03:30:42;;;;;;;29.10;17.80;;;;;;;16.26;57.83;100308.80;107986;1253;69101;-66
2023/09/12 03:33:09;;;;;;;35.10;18.30;;;;;;;16.41;57.70;100318.91;107925;1254;73017;-66
2023/09/12 03:35:37;;;;;;;32.70;16.90;;;;;;;16.53;57.33;100319.27;108028;1254;60866;-66
2023/09/12 03:38:04;;;;;;;39.10;19.50;;;;;;;16.56;57.35;100319.08;107938;1253;60033;-67
2023/09/12 03:40:32;;;;;;;37.30;18.10;;;;;;;16.65;57.14;100317.36;107981;1254;73909;-66
2023/09/12 03:42:59;;;;;;;33.10;18.00;;;;;;;16.47;57.61;100318.73;108145;1253;70066;-67
2023/09/12 03:45:27;;;;;;;40.00;19.90;;;;;;;16.44;57.71;100319.42;108191;1254;72723;-66
2023/09/12 03:47:54;;;;;;;32.90;18.00;;;;;;;16.53;57.68;100318.05;108108;1254;60465;-66
2023/09/12 03:50:22;;;;;;;35.70;18.20;;;;;;;16.52;57.62;100320.93;108091;1254;60205;-65
2023/09/12 03:52:49;;;;;;;33.80;19.20;;;;;;;16.53;57.75;100317.17;108026;1254;72285;-66
2023/09/12 03:55:17;;;;;;;35.20;19.00;;;;;;;16.50;57.77;100316.05;108068;1254;70756;-65
2023/09/12 03:57:44;;;;;;;39.10;19.60;;;;;;;16.17;58.84;100316.58;107954;1253;72520;-66
2023/09/12 04:00:13;;;;;;;35.80;18.80;;;;;;;16.30;58.71;100318.99;108110;1254;60568;-66
2023/09/12 04:02:43;;;;;;;;;;;;;;;16.54;58.61;100319.59;108061;1254;59053;-66
2023/09/12 04:05:10;;;;;;;32.20;18.70;;;;;;;16.93;58.24;100316.73;108178;1253;72206;-65
2023/09/12 04:07:38;;;;;;;33.60;18.20;;;;;;;17.36;57.70;100322.44;108117;1257;69419;-66
2023/09/12 04:10:06;;;;;;;35.70;19.10;;;;;;;17.75;56.95;100318.73;108041;1254;71079;-66
2023/09/12 04:12:33;;;;;;;37.70;16.70;;;;;;;18.41;55.80;100317.14;108150;1254;61627;-66
2023/09/12 04:15:00;;;;;;;32.20;17.10;;;;;;;18.87;55.09;100319.44;108105;1254;60727;-66
2023/09/12 04:17:28;;;;;;;31.00;17.60;;;;;;;19.48;53.79;100324.56;108080;1254;72525;-67
2023/09/12 04:19:55;;;;;;;27.40;14.80;;;;;;;19.95;52.75;100323.70;107959;1254;69942;-66
2023/09/12 04:22:23;;;;;;;24.10;13.40;;;;;;;20.31;51.97;100316.85;108051;1255;71073;-66
2023/09/12 04:24:50;;;;;;;32.00;16.50;;;;;;;20.74;50.77;100318.92;108051;1253;60497;-67
2023/09/12 04:27:18;;;;;;;29.00;15.90;;;;;;;21.30;49.24;100319.77;108000;1254;60174;-66
2023/09/12 04:29:45;;;;;;;31.30;15.90;;;;;;;21.70;48.21;100317.89;107873;1255;74493;-66
2023/09/12 04:32:13;;;;;;;25.90;15.20;;;;;;;22.19;47.31;100316.36;107904;1253;70982;-66
2023/09/12 04:34:42;;;;;;;26.80;15.50;;;;;;;22.66;46.10;100309.41;107806;1253;71688;-65
2023/09/12 04:37:10;;;;;;;37.10;15.60;;;;;;;23.18;44.95;100306.96;107902;1254;61842;-65
2023/09/12 04:39:38;;;;;;;27.20;13.80;;;;;;;23.42;44.20;100307.92;107828;1253;60352;-66
2023/09/12 04:42:05;;;;;;;29.40;13.30;;;;;;;23.20;44.36;100311.25;108032;1253;73922;-67
2023/09/12 04:44:36;;;;;;;36.10;15.00;;;;;;;22.98;44.69;100313.87;107990;1253;68976;-67
2023/09/12 04:47:04;;;;;;;24.30;13.70;;;;;;;23.07;44.32;100321.73;107977;1254;71920;-66
2023/09/12 04:49:32;;;;;;;33.40;14.50;;;;;;;23.36;43.87;100319.94;107978;1254;61604;-67
2023/09/12 04:51:59;;;;;;;30.90;14.60;;;;;;;24.39;42.07;100313.77;107968;1253;60289;-66
2023/09/12 04:54:27;;;;;;;27.60;14.10;;;;;;;25.00;40.38;100315.59;107939;1254;73759;-67
2023/09/12 04:56:55;;;;;;;24.00;13.80;;;;;;;25.32;39.83;100320.36;107950;1254;69134;-68
2023/09/12 04:59:22;;;;;;;24.60;13.60;;;;;;;25.90;38.81;100319.75;107956;1254;72675;-66
2023/09/12 05:01:51;;;;;;;25.80;14.30;;;;;;;26.22;38.11;100322.33;108015;1254;60366;-67
2023/09/12 05:04:18;;;;;;;30.20;14.00;;;;;;;26.48;37.38;100319.27;107952;1254;60437;-67
2023/09/12 05:06:46;;;;;;;21.80;13.10;;;;;;;26.89;36.63;100320.66;108130;1254;73893;-66
2023/09/12 05:09:14;;;;;;;28.10;14.50;;;;;;;27.29;36.16;100319.94;108008;1254;70263;-68
2023/09/12 05:11:41;;;;;;;24.30;13.70;;;;;;;27.84;35.52;100320.17;107933;1259;72470;-66
2023/09/12 05:14:09;;;;;;;34.40;16.00;;;;;;;27.90;35.12;100314.31;108029;1254;60330;-67
2023/09/12 05:16:36;;;;;;;26.50;14.50;;;;;;;28.01;34.63;100315.94;108047;1254;60523;-67
2023/09/12 05:19:04;;;;;;;21.40;14.10;;;;;;;28.27;34.53;100316.77;108070;1254;71852;-68
2023/09/12 05:21:34;;;;;;;29.60;16.00;;;;;;;28.58;34.00;100317.94;107972;1259;69200;-67
2023/09/12 05:24:04;;;;;;;23.70;13.90;;;;;;;28.89;33.71;100318.77;108074;1257;73068;-68
2023/09/12 05:26:31;;;;;;;19.60;13.20;;;;;;;29.06;32.84;100318.17;108075;1253;60423;-67
2023/09/12 05:28:59;;;;;;;27.40;15.60;;;;;;;29.27;32.67;100318.53;107923;1254;60425;-67
2023/09/12 05:31:26;;;;;;;26.80;13.00;;;;;;;29.47;32.17;100322.94;107903;1256;73810;-68
2023/09/12 05:33:54;;;;;;;30.30;14.30;;;;;;;29.64;31.92;100319.20;107880;1260;68879;-68
2023/09/12 05:36:22;;;;;;;27.70;14.70;;;;;;;30.14;31.51;100323.05;108065;1253;73228;-67
2023/09/12 05:38:49;;;;;;;20.00;12.90;;;;;;;30.54;31.17;100321.16;108000;1259;60349;-69
2023/09/12 05:41:17;;;;;;;29.40;13.30;;;;;;;30.61;30.89;100321.71;107993;1254;60495;-68
2023/09/12 05:43:44;;;;;;;28.80;13.90;;;;;;;30.90;30.52;100321.53;107919;1254;73887;-68
2023/09/12 05:46:11;;;;;;;26.50;13.40;;;;;;;31.20;29.92;100321.97;107969;1254;69993;-67
2023/09/12 05:48:39;;;;;;;23.40;13.50;;;;;;;31.37;29.54;100325.23;108098;1254;71380;-68
2023/09/12 05:51:07;;;;;;;22.20;11.70;;;;;;;31.70;29.21;100329.34;108081;1258;60322;-68
2023/09/12 05:53:34;;;;;;;25.60;13.10;;;;;;;31.91;28.53;100333.38;107988;1253;60521;-68
2023/09/12 05:56:02;;;;;;;20.30;11.80;;;;;;;31.93;28.42;100331.06;108072;1254;72511;-69
2023/09/12 05:58:30;;;;;;;19.80;12.70;;;;;;;32.09;28.19;100330.77;108180;1254;70769;-67
2023/09/12 06:00:57;;;;;;;18.10;11.10;;;;;;;32.25;27.96;100328.01;108009;1259;71476;-68
2023/09/12 06:03:25;;;;;;;21.60;12.10;;;;;;;32.42;27.57;100329.92;107897;1256;60431;-67
2023/09/12 06:08:53;;;;;;;16.40;11.00;;;;;;;31.30;29.07;100330.80;104752;1292;600445;-68
2023/09/12 06:11:20;;;;;;;21.60;12.00;;;;;;;32.23;27.66;100326.64;107221;1267;60061;-69
2023/09/12 06:13:48;;;;;;;15.90;11.50;;;;;;;32.20;27.33;100326.23;107240;1267;60276;-67
2023/09/12 06:16:15;;;;;;;25.10;11.30;;;;;;;32.09;27.70;100330.45;107241;1266;72217;-68
2023/09/12 06:18:42;;;;;;;25.70;11.70;;;;;;;32.53;27.58;100328.21;107282;1265;69024;-68
2023/09/12 06:21:10;;;;;;;16.50;10.50;;;;;;;32.84;26.88;100324.38;107253;1266;72688;-67
2023/09/12 06:23:38;;;;;;;18.90;11.80;;;;;;;33.09;26.76;100322.50;107197;1266;240498;-68
2023/09/12 06:26:05;;;;;;;17.10;11.00;;;;;;;33.18;26.34;100327.67;107302;1263;60190;-68
2023/09/12 06:28:33;;;;;;;13.30;10.40;;;;;;;33.20;26.30;100331.02;107363;1263;72783;-68
2023/09/12 06:31:00;;;;;;;15.70;9.80;;;;;;;33.50;26.13;100327.49;107432;1263;70266;-68
2023/09/12 06:33:28;;;;;;;17.40;10.00;;;;;;;34.10;25.60;100332.13;107363;1264;63755;-69
2023/09/12 06:35:56;;;;;;;15.30;9.20;;;;;;;34.72;24.79;100334.84;107320;1266;59503;-68
2023/09/12 06:38:24;;;;;;;13.00;8.40;;;;;;;35.02;24.18;100329.73;107317;1264;59516;-68
2023/09/12 06:40:51;;;;;;;15.60;8.90;;;;;;;34.89;24.14;100331.83;107372;1264;64155;-68
2023/09/12 06:43:19;;;;;;;12.80;9.00;;;;;;;34.91;24.36;100335.64;107400;1263;60248;-68
2023/09/12 06:45:47;;;;;;;11.30;8.70;;;;;;;35.01;24.17;100336.55;107498;1260;62455;-69
2023/09/12 06:48:16;;;;;;;16.10;8.90;;;;;;;35.44;23.85;100332.98;107419;1260;59515;-68
2023/09/12 06:50:44;;;;;;;12.50;8.90;;;;;;;35.65;23.11;100334.77;108017;1254;59641;-68
2023/09/12 06:53:17;;;;;;;15.70;9.10;;;;;;;35.64;23.08;100334.11;108008;1256;62855;-68
2023/09/12 06:55:45;;;;;;;15.70;10.00;;;;;;;35.53;23.21;100337.02;107975;1254;61577;-69
2023/09/12 06:58:12;;;;;;;17.10;9.00;;;;;;;35.44;23.27;100338.02;107980;1254;63729;-67
2023/09/12 07:00:39;;;;;;;13.70;8.00;;;;;;;35.31;23.46;100338.96;107945;1254;59615;-67
2023/09/12 07:03:07;;;;;;;13.10;8.40;;;;;;;35.09;23.53;100339.66;107996;1254;59106;-68
2023/09/12 07:05:36;;;;;;;17.40;9.40;;;;;;;35.11;23.11;100341.81;107979;1254;64175;-68
2023/09/12 07:08:04;;;;;;;14.10;7.90;;;;;;;35.16;23.00;100341.65;108007;1254;60392;-69
2023/09/12 07:10:31;;;;;;;13.10;8.60;;;;;;;35.41;22.77;100343.46;107974;1256;63716;-68
2023/09/12 07:12:59;;;;;;;12.60;7.60;;;;;;;35.63;22.61;100342.77;107948;1254;59965;-68
2023/09/12 07:15:27;;;;;;;13.90;8.40;;;;;;;35.97;22.28;100341.46;108025;1254;59339;-68
2023/09/12 07:17:56;;;;;;;15.10;9.00;;;;;;;36.12;22.01;100340.55;108045;1254;62851;-68
2023/09/12 07:20:24;;;;;;;14.70;9.10;;;;;;;36.27;21.80;100339.17;107999;1254;61532;-69
2023/09/12 07:22:51;;;;;;;18.50;10.50;;;;;;;36.38;21.84;100335.21;107981;1257;62505;-68
2023/09/12 07:25:20;;;;;;;13.60;10.30;;;;;;;36.49;21.77;100334.77;108024;1254;59550;-70
2023/09/12 07:27:48;;;;;;;23.00;10.10;;;;;;;36.58;21.73;100333.14;108149;1253;59503;-69
2023/09/12 07:30:15;;;;;;;13.20;8.40;;;;;;;36.82;21.27;100333.90;108116;1254;64343;-68
2023/09/12 07:32:43;;;;;;;11.60;7.30;;;;;;;37.08;21.41;100329.92;108100;1254;60338;-68
2023/09/12 07:35:11;;;;;;;16.10;7.80;;;;;;;37.39;20.84;100333.31;108136;1256;63718;-68
2023/09/12 07:37:38;;;;;;;12.90;7.40;;;;;;;37.60;20.06;100330.94;108168;1254;59531;-68
2023/09/12 07:40:09;;;;;;;16.30;7.10;;;;;;;37.48;20.01;100333.13;108147;1253;59503;-69
2023/09/12 07:42:37;;;;;;;11.00;6.40;;;;;;;37.27;20.22;100337.89;108168;1254;64213;-68
2023/09/12 07:45:05;;;;;;;11.80;6.90;;;;;;;37.42;20.22;100339.66;108066;1253;60150;-67
2023/09/12 07:47:33;;;;;;;10.80;6.70;;;;;;;37.71;20.17;100338.84;108167;1253;63930;-68
2023/09/12 07:50:01;;;;;;;9.90;6.30;;;;;;;38.08;19.38;100344.04;108147;1253;59599;-69
2023/09/12 07:52:28;;;;;;;14.10;6.70;;;;;;;38.20;19.24;100345.74;108185;1253;59401;-68
2023/09/12 07:55:00;;;;;;;11.80;6.60;;;;;;;38.01;19.33;100344.16;108222;1252;64085;-68
2023/09/12 07:57:28;;;;;;;15.10;6.40;;;;;;;37.94;19.56;100340.21;108155;1254;72700;-69
2023/09/12 07:59:56;;;;;;;12.30;6.40;;;;;;;38.11;19.13;100342.90;108172;1253;63818;-69
2023/09/12 08:02:24;;;;;;;12.80;6.00;;;;;;;38.13;19.14;100342.03;108170;1254;59532;-69
2023/09/12 08:04:51;;;;;;;11.60;6.50;;;;;;;38.31;19.23;100345.80;108133;1254;59510;-69
2023/09/12 08:07:19;;;;;;;11.20;5.70;;;;;;;38.51;19.12;100349.82;108103;1253;64105;-69
2023/09/12 08:09:55;;;;;;;8.70;5.90;;;;;;;38.67;18.68;100344.83;108194;1254;61432;-68
2023/09/12 08:12:23;;;;;;;10.90;6.30;;;;;;;38.61;18.53;100349.59;108135;1256;62509;-68
2023/09/12 08:14:51;;;;;;;10.60;5.90;;;;;;;38.75;18.45;100343.39;108076;1254;59676;-69
2023/09/12 08:17:19;;;;;;;9.00;5.70;;;;;;;38.98;18.06;100344.67;108298;1252;59017;-68
2023/09/12 08:19:46;;;;;;;10.60;6.00;;;;;;;39.08;17.90;100343.53;108179;1252;62860;-68
2023/09/12 08:22:14;;;;;;;11.20;5.30;;;;;;;38.89;17.97;100339.04;108178;1254;60244;-67
2023/09/12 08:24:41;;;;;;;13.50;5.80;;;;;;;38.82;18.01;100338.53;108202;1255;63742;-68
2023/09/12 08:27:09;;;;;;;13.70;5.90;;;;;;;38.79;18.13;100338.73;108093;1254;59974;-68
2023/09/12 08:29:38;;;;;;;9.20;5.90;;;;;;;38.70;17.94;100338.86;108089;1253;59483;-68
2023/09/12 08:32:05;;;;;;;14.60;5.50;;;;;;;38.59;18.06;100342.16;108054;1254;64130;-68
2023/09/12 08:34:33;;;;;;;11.10;6.10;;;;;;;38.46;17.90;100343.84;108103;1253;61370;-68
2023/09/12 08:37:00;;;;;;;12.20;5.60;;;;;;;38.34;17.78;100345.06;108059;1253;63739;-67
2023/09/12 08:39:28;;;;;;;10.80;5.40;;;;;;;38.34;18.09;100348.80;108038;1253;59766;-68
2023/09/12 08:41:55;;;;;;;15.30;5.50;;;;;;;38.62;18.06;100345.41;108163;1252;59675;-69
2023/09/12 08:44:22;;;;;;;11.10;5.40;;;;;;;38.91;17.65;100340.42;108184;1253;64126;-68
2023/09/12 08:46:50;;;;;;;11.70;5.60;;;;;;;39.00;17.37;100342.96;108069;1254;60145;-68
2023/09/12 08:49:18;;;;;;;14.20;4.80;;;;;;;38.86;17.18;100341.09;108137;1253;62568;-68
2023/09/12 08:51:46;;;;;;;10.70;4.60;;;;;;;38.81;16.93;100337.10;107963;1254;59529;-69
2023/09/12 08:54:13;;;;;;;8.30;4.60;;;;;;;38.88;17.18;100339.19;108215;1254;59496;-68
2023/09/12 08:56:42;;;;;;;7.50;5.00;;;;;;;39.28;16.98;100341.67;108150;1256;64220;-67
2023/09/12 08:59:10;;;;;;;13.70;5.00;;;;;;;39.47;16.71;100335.06;108079;1254;61936;-68
2023/09/12 09:01:38;;;;;;;8.90;5.20;;;;;;;39.66;16.77;100337.73;108146;1253;63698;-68
2023/09/12 09:04:06;;;;;;;11.20;4.50;;;;;;;39.84;16.43;100338.28;107955;1254;58929;-68
2023/09/12 09:06:37;;;;;;;7.70;4.40;;;;;;;39.94;16.21;100336.59;108125;1253;59479;-68
2023/09/12 09:09:05;;;;;;;14.30;5.10;;;;;;;39.90;16.20;100336.35;108260;1254;64157;-69
2023/09/12 09:11:32;;;;;;;15.40;5.10;;;;;;;39.83;16.59;100341.29;108139;1253;61701;-68
2023/09/12 09:14:02;;;;;;;6.80;4.10;;;;;;;39.65;16.41;100343.66;108159;1254;63731;-66
2023/09/12 09:16:30;;;;;;;8.50;4.60;;;;;;;39.46;16.48;100342.27;108194;1252;59534;-69
2023/09/12 09:18:59;;;;;;;6.50;4.30;;;;;;;39.44;16.43;100338.30;108150;1253;59507;-68
2023/09/12 09:21:30;;;;;;;8.30;4.30;;;;;;;39.75;16.09;100338.41;108226;1254;75289;-70
2023/09/12 09:24:00;;;;;;;9.10;4.40;;;;;;;39.72;15.90;100338.13;108308;1254;60211;-68
2023/09/12 09:26:48;;;;;;;9.50;4.50;;;;;;;39.44;16.23;100336.98;107975;1253;62730;-68
2023/09/12 09:29:20;;;;;;;10.60;4.30;;;;;;;38.95;16.46;100338.69;107998;1254;59635;-69
2023/09/12 09:31:48;;;;;;;8.80;4.30;;;;;;;38.65;16.66;100336.70;108119;1252;59535;-69
2023/09/12 09:34:19;;;;;;;6.70;4.30;;;;;;;38.37;16.85;100335.90;107975;1253;62828;-69
2023/09/12 09:36:52;;;;;;;8.40;4.30;;;;;;;38.10;17.05;100335.52;108059;1254;61601;-68
2023/09/12 09:39:21;;;;;;;10.40;3.80;;;;;;;38.09;17.12;100333.65;108020;1253;64015;-68
2023/09/12 09:41:49;;;;;;;11.30;4.30;;;;;;;38.32;16.88;100333.09;107976;1258;59519;-68
2023/09/12 09:44:16;;;;;;;9.00;4.30;;;;;;;38.50;17.10;100331.52;108071;1253;59602;-68
2023/09/12 09:46:45;;;;;;;13.20;4.60;;;;;;;38.75;16.72;100329.44;108027;1254;65155;-68
2023/09/12 09:49:17;;;;;;;7.40;4.10;;;;;;;39.11;16.36;100325.14;108069;1253;60363;-68
2023/09/12 09:51:44;;;;;;;6.60;4.20;;;;;;;39.30;16.21;100320.69;108041;1254;63746;-69
2023/09/12 09:54:12;;;;;;;7.90;3.80;;;;;;;39.83;15.97;100319.05;108083;1254;59554;-69
2023/09/12 09:56:50;;;;;;;8.60;3.70;;;;;;;39.98;15.33;100321.23;108186;1253;59208;-68
2023/09/12 09:59:18;;;;;;;7.40;4.00;;;;;;;39.75;15.42;100318.61;108166;1254;75353;-69
2023/09/12 10:01:46;;;;;;;9.50;4.20;;;;;;;39.59;15.67;100316.08;108056;1253;61619;-68
2023/09/12 10:04:14;;;;;;;4.80;3.20;;;;;;;39.72;15.57;100314.81;108052;1258;63866;-68
2023/09/12 10:06:45;;;;;;;9.10;4.00;;;;;;;39.50;15.40;100315.23;108091;1254;59590;-69
2023/09/12 10:09:13;;;;;;;9.50;4.00;;;;;;;39.27;15.65;100314.28;108160;1253;59558;-69
2023/09/12 10:11:43;;;;;;;8.50;3.40;;;;;;;39.18;15.63;100309.17;108068;1254;75327;-69
2023/09/12 10:14:10;;;;;;;6.80;3.50;;;;;;;39.48;15.30;100312.65;108133;1254;61577;-68
2023/09/12 10:16:45;;;;;;;12.40;3.70;;;;;;;39.66;15.30;100311.27;107925;1254;66129;-69
2023/09/12 10:19:21;;;;;;;7.80;3.60;;;;;;;39.52;15.45;100313.41;108096;1258;60411;-68
2023/09/12 10:22:08;;;;;;;6.20;3.40;;;;;;;39.45;15.16;100312.84;108117;1254;60523;-69
2023/09/12 10:24:36;;;;;;;6.40;3.40;;;;;;;39.42;15.44;100311.55;108069;1253;64925;-66
2023/09/12 10:27:03;;;;;;;8.50;3.90;;;;;;;39.39;15.51;100308.88;108095;1252;61351;-68
2023/09/12 10:29:31;;;;;;;7.70;3.90;;;;;;;39.81;15.31;100311.46;108133;1253;63701;-68
2023/09/12 10:31:59;;;;;;;7.20;3.90;;;;;;;39.87;15.25;100308.66;108057;1254;60332;-68
2023/09/12 10:34:26;;;;;;;9.80;4.00;;;;;;;40.06;14.70;100304.19;107962;1255;60442;-68
2023/09/12 10:36:53;;;;;;;6.20;3.20;;;;;;;39.66;14.92;100306.20;108060;1254;64893;-68
2023/09/12 10:39:21;;;;;;;13.20;3.60;;;;;;;39.20;15.21;100307.06;108052;1254;61846;-69
2023/09/12 10:41:49;;;;;;;18.60;4.20;;;;;;;38.89;15.17;100305.12;108061;1254;63872;-68
2023/09/12 10:44:17;;;;;;;9.60;3.70;;;;;;;38.86;15.32;100302.93;108137;1256;60405;-69
2023/09/12 10:46:45;;;;;;;8.40;3.60;;;;;;;38.90;15.23;100299.14;108134;1252;62213;-68
2023/09/12 10:49:14;;;;;;;9.10;3.60;;;;;;;39.59;14.80;100293.41;108186;1254;64986;-68
2023/09/12 10:51:43;;;;;;;7.50;3.10;;;;;;;39.68;14.61;100292.94;108218;1254;61401;-68
2023/09/12 10:54:24;;;;;;;8.00;3.40;;;;;;;39.41;14.71;100291.41;108118;1254;62430;-68
2023/09/12 10:57:13;;;;;;;6.50;3.10;;;;;;;39.32;14.83;100289.88;108071;1254;61200;-68
2023/09/12 10:59:59;;;;;;;7.20;3.40;;;;;;;39.17;14.83;100293.17;108033;1253;60361;-67
2023/09/12 11:02:31;;;;;;;9.60;3.70;;;;;;;38.99;14.90;100292.00;108181;1252;73776;-68
2023/09/12 11:04:59;;;;;;;7.30;3.80;;;;;;;38.82;15.18;100291.20;108186;1254;61386;-68
2023/09/12 11:07:31;;;;;;;8.10;3.70;;;;;;;38.65;15.02;100286.66;108159;1252;74968;-68
2023/09/12 11:10:22;;;;;;;8.20;3.20;;;;;;;38.55;15.00;100289.78;108125;1253;60268;-68
2023/09/12 11:12:51;;;;;;;10.40;3.40;;;;;;;38.62;15.27;100287.17;108191;1254;60277;-68
2023/09/12 11:15:20;;;;;;;7.80;3.50;;;;;;;38.33;15.10;100287.41;108245;1256;65267;-69
2023/09/12 11:18:15;;;;;;;4.60;3.50;;;;;;;38.05;15.37;100282.41;108255;1253;61006;-68